Detall de PIREP

Printer-friendly versionPDF version

[2014/01/03 08:41:00]
Flight IATA:CT1004
Pilot Number:012
Company ICAO:CAT
Aircraft Type:B738/F
PAX:139
Departing Airport: LUKK
Destination Airport: LIEA
Alternate Airport:LIEO
Online: VATSIM
Route:BUSES UZ924 KOLUS UM603 MOROB
Flight Level:F380
No Slew and time accel
No pause
Crash detect
Detect pilot in Cockpit between each 30 and 45 minutes
08:41 Zero fuel Weight: 122991 Lbs, Fuel Weight: 19561 Lbs
08:41 VATSIM:LUKK 030800Z 19006KT 6000 BKN003 OVC019 05/04 Q1023 R08/290152 NOSIG
08:41 VATSIM:LIEA 030750Z 19011KT 8000 FEW006 BKN018 15/14 Q1019
08:41 VOICE CATALONIAN / XMAS CHARTER
08:56 Parking Brakes off
09:03 Take-off
09:03 Take off Weight: 141456 Lbs
09:03 Wind: 174º @ 010 Knots Heading: 088º
09:03 POS N46º 55´ 42´´ E028º 56´ 07´´
09:03 Gear Up: 164 Knots
09:03 Flaps:3 at 164 Knots
09:03 Flaps:2 at 199 Knots
09:03 Flaps:0 at 200 Knots
09:18 Wind:090º@000 Knots Heading: 244º Ground Speed: 457 Knots Altitude 31361 ft
09:23 TOC
09:23 Fuel Weight: 14472 Lb
09:33 Wind:266º@017 Knots Heading: 248º Ground Speed: 430 Knots Altitude 38234 ft
09:48 Wind:274º@020 Knots Heading: 248º Ground Speed: 431 Knots Altitude 38231 ft
10:03 Wind:290º@026 Knots Heading: 241º Ground Speed: 433 Knots Altitude 38228 ft
10:18 Wind:313º@030 Knots Heading: 257º Ground Speed: 434 Knots Altitude 38254 ft
10:33 Wind:324º@046 Knots Heading: 246º Ground Speed: 449 Knots Altitude 38238 ft
10:48 Wind:330º@061 Knots Heading: 256º Ground Speed: 443 Knots Altitude 38231 ft
11:03 Wind:327º@070 Knots Heading: 258º Ground Speed: 436 Knots Altitude 38205 ft
11:06 TOD
11:06 Fuel Weight: 5595 Lb
11:18 Wind:282º@015 Knots Heading: 264º Ground Speed: 334 Knots Altitude 12923 ft
11:26 Flaps:1 at 221 Knots
11:27 Flaps:2 at 207 Knots
11:27 Flaps:3 at 186 Knots
11:28 Gear Down: 187 Knots
11:28 Flaps:4 at 188 Knots
11:28 Flaps:5 at 176 Knots
11:28 Flaps:6 at 170 Knots
11:29 Flaps:7 at 161 Knots
11:31 TouchDown:Rate -252 ft/min Speed: 140 Knots
11:32 VATSIM:LIEA 031120Z 19014KT 8000 BKN008 BKN020 16/14 Q1020
11:32 Land
11:32 Wind:188º@014 Knots
11:32 Heading: 202º
11:32 Flight Duration: 02:29
11:32 Landing Weight: 127416 Lbs
11:32 POS N40º 37´ 56´´ E008º 17´ 27´´
11:34 Parking brakes on
11:34 Block to Block Duration: 02:38
11:34 Final Fuel: 4259 Lbls
11:34 Spent Fuel: 15302 Lbls
11:34 Flight Length: 1012 NM
11:34 TOD Land Length: 126 NM

Exportar CSV

Powered by Drupal - Modified by Danger4k